Terminal Aerodrome Forecast
Issued by NWS Melbourne, FL

Home | Current Version | Previous Version | Text Only | Print | Product List | Glossary On
Versions: 1 2 3 4 5 6 7 8 9 10 11 12 13 14 15 16 17
000
FTUS42 KMLB 182327
TAFVRB
TAF
KVRB 182327Z 1900/1924 11007KT P6SM VCTS SCT040CB BKN060 BKN250
      TEMPO 1900/1901 4SM TSRA SCT030CB BKN060 BKN100
     FM190200 22003KT P6SM SCT080 BKN250
     FM190500 00000KT 5SM BR BKN250
     FM191300 20009KT P6SM SCT030 BKN250
     FM191900 11008KT P6SM VCTS SCT040CB BKN250=

USA.gov is the U.S. government's official web portal to all federal, state and local government web resources and services.